Igiugig, Alaska
Current Conditions -  °F | °C
As of 4:56 PM on Sunday 23 Nov 2014 (Local Time) from PAIG Reporting Station
Few Clouds Few Clouds  
Wind Chill: 33°   Ceiling: Unl
Heat Index: 39°   Visibility: 10mi
Dew Point: 33°   Wind: 8mph
Humidity: 79%   Direction: 80°E
Pressure: 29.35"   Gusts: NA
Location:  59.32°N, 155.89°W
Report Text: PAIG 240056Z AUTO 08007KT 10SM FEW060 04/01 A2935 RMK AO2 TSNO T00380005 SLP943 $
Loading
Personal Weather Stations






























Interactive Weather Map New forecast layout! Learn more

10-Day Weather Forecast

Advertisements
Track Severe Weather on mobile